Time;durP1;ratioP1;P1;durP2;ratioP2;P2;SDS_P1;SDS_P2;PMS_P1;PMS_P2;Temp;Humidity;BMP_temperature;BMP_pressure;BME280_temperature;BME280_humidity;BME280_pressure;Samples;Min_cycle;Max_cycle;Signal;HPM_P1;HPM_P2
2023/05/04 00:00:16;;;;;;;15.20;12.40;;;;;;;;;;5043705;28;20042;-68
2023/05/04 00:02:41;;;;;;;16.42;12.38;;;;;;;;;;5012284;28;20041;-68
2023/05/04 00:05:11;;;;;;;23.92;12.52;;;;;;;;;;5010304;28;20061;-69
2023/05/04 00:07:36;;;;;;;17.15;12.15;;;;;;;;;;5014898;28;20486;-70
2023/05/04 00:10:01;;;;;;;18.35;13.02;;;;;;;;;;5015417;28;20099;-68
2023/05/04 00:12:27;;;;;;;17.60;12.18;;;;;;;;;;5008779;28;20128;-66
2023/05/04 00:14:54;;;;;;;15.93;12.70;;;;;;;;;;5011197;28;20048;-67
2023/05/04 00:17:22;;;;;;;15.18;11.77;;;;;;;;;;5034230;28;20049;-68
2023/05/04 00:19:48;;;;;;;15.95;12.55;;;;;;;;;;5008316;28;21093;-68
2023/05/04 00:22:13;;;;;;;17.10;12.50;;;;;;;;;;4970850;28;1076615;-68
2023/05/04 00:24:38;;;;;;;15.75;12.10;;;;;;;;;;5008493;28;20037;-68
2023/05/04 00:27:03;;;;;;;18.83;13.00;;;;;;;;;;5039934;28;20143;-68
2023/05/04 00:29:29;;;;;;;19.35;13.07;;;;;;;;;;5011299;28;20161;-68
2023/05/04 00:31:54;;;;;;;18.13;12.15;;;;;;;;;;5009553;28;20040;-68
2023/05/04 00:34:20;;;;;;;18.05;13.00;;;;;;;;;;5041938;28;20064;-68
2023/05/04 00:36:46;;;;;;;19.73;12.65;;;;;;;;;;5011894;28;20045;-68
2023/05/04 00:39:13;;;;;;;16.83;12.65;;;;;;;;;;5013987;28;20040;-68
2023/05/04 00:41:38;;;;;;;17.30;11.70;;;;;;;;;;5016893;28;20037;-67
2023/05/04 00:44:04;;;;;;;20.30;12.80;;;;;;;;;;5002932;28;20049;-68
2023/05/04 00:46:30;;;;;;;18.60;12.98;;;;;;;;;;5035252;28;20235;-69
2023/05/04 00:48:58;;;;;;;18.35;13.38;;;;;;;;;;4992126;28;20045;-67
2023/05/04 00:51:23;;;;;;;22.52;12.98;;;;;;;;;;4996392;28;20631;-68
2023/05/04 00:53:49;;;;;;;19.73;13.77;;;;;;;;;;4991632;28;20550;-68
2023/05/04 00:56:15;;;;;;;20.45;13.45;;;;;;;;;;4990385;28;20104;-68
2023/05/04 00:58:40;;;;;;;19.38;13.77;;;;;;;;;;4990453;28;20729;-67
2023/05/04 01:01:06;;;;;;;19.27;13.77;;;;;;;;;;4990582;28;20049;-66
2023/05/04 01:03:31;;;;;;;19.50;13.02;;;;;;;;;;4993637;28;20030;-68
2023/05/04 01:05:57;;;;;;;19.10;13.40;;;;;;;;;;4994762;28;20386;-68
2023/05/04 01:08:27;;;;;;;21.00;13.10;;;;;;;;;;4992608;28;20026;-68
2023/05/04 01:10:59;;;;;;;18.33;12.80;;;;;;;;;;4999209;28;20029;-67
2023/05/04 01:13:24;;;;;;;16.48;13.20;;;;;;;;;;4994436;28;20064;-67
2023/05/04 01:15:50;;;;;;;18.92;13.18;;;;;;;;;;4992063;28;20404;-67
2023/05/04 01:18:18;;;;;;;18.38;13.68;;;;;;;;;;4991969;28;20100;-69
2023/05/04 01:20:43;;;;;;;18.48;13.57;;;;;;;;;;4984396;28;20557;-68
2023/05/04 01:23:08;;;;;;;20.27;13.63;;;;;;;;;;4991604;28;20521;-68
2023/05/04 01:25:47;;;;;;;19.95;13.35;;;;;;;;;;4989007;28;20414;-68
2023/05/04 01:28:17;;;;;;;19.65;12.57;;;;;;;;;;4988797;28;20204;-67
2023/05/04 01:30:51;;;;;;;21.35;13.07;;;;;;;;;;4991119;28;20033;-66
2023/05/04 01:33:17;;;;;;;16.93;12.97;;;;;;;;;;5018396;28;20107;-68
2023/05/04 01:35:45;;;;;;;19.38;12.93;;;;;;;;;;4981604;28;20438;-67
2023/05/04 01:38:10;;;;;;;20.80;13.10;;;;;;;;;;5012584;28;20053;-67
2023/05/04 01:40:35;;;;;;;20.75;13.73;;;;;;;;;;4984520;28;20034;-67
2023/05/04 01:43:01;;;;;;;18.25;13.05;;;;;;;;;;5001580;28;20033;-69
2023/05/04 01:45:31;;;;;;;20.77;12.57;;;;;;;;;;4983962;28;20124;-68
2023/05/04 01:47:58;;;;;;;19.90;12.30;;;;;;;;;;4983206;28;20810;-67
2023/05/04 01:50:23;;;;;;;16.38;12.38;;;;;;;;;;4981024;28;20534;-69
2023/05/04 01:52:49;;;;;;;20.55;13.38;;;;;;;;;;4987333;28;20440;-70
2023/05/04 01:55:14;;;;;;;19.10;12.40;;;;;;;;;;4983629;28;20504;-67
2023/05/04 01:57:40;;;;;;;22.17;13.20;;;;;;;;;;4982089;28;20235;-68
2023/05/04 02:00:05;;;;;;;19.27;12.45;;;;;;;;;;4990721;28;20219;-67
2023/05/04 02:02:31;;;;;;;18.67;12.50;;;;;;;;;;4984568;28;20038;-67
2023/05/04 02:04:56;;;;;;;16.30;12.45;;;;;;;;;;4987542;28;20084;-70
2023/05/04 02:07:21;;;;;;;19.50;12.77;;;;;;;;;;5018930;28;20044;-68
2023/05/04 02:09:46;;;;;;;19.25;12.20;;;;;;;;;;4987986;28;20030;-68
2023/05/04 02:12:12;;;;;;;19.52;11.65;;;;;;;;;;5017628;28;20033;-69
2023/05/04 02:14:39;;;;;;;17.08;11.90;;;;;;;;;;4977577;28;20058;-68
2023/05/04 02:17:08;;;;;;;17.13;11.55;;;;;;;;;;5010266;28;20498;-68
2023/05/04 02:19:33;;;;;;;17.30;11.70;;;;;;;;;;5011042;28;20034;-68
2023/05/04 02:21:58;;;;;;;18.17;12.10;;;;;;;;;;4983703;28;20592;-67
2023/05/04 02:24:26;;;;;;;18.00;12.15;;;;;;;;;;4984894;28;20525;-68
2023/05/04 02:26:53;;;;;;;20.92;12.82;;;;;;;;;;4980246;28;20046;-68
2023/05/04 02:29:21;;;;;;;19.55;11.60;;;;;;;;;;4981135;28;20563;-67
2023/05/04 02:31:47;;;;;;;19.25;11.93;;;;;;;;;;5011036;28;20138;-70
2023/05/04 02:34:12;;;;;;;18.02;11.95;;;;;;;;;;4980843;28;20355;-68
2023/05/04 02:36:37;;;;;;;17.65;12.13;;;;;;;;;;4984342;28;20042;-68
2023/05/04 02:39:05;;;;;;;19.30;11.98;;;;;;;;;;4981335;28;21891;-69
2023/05/04 02:41:30;;;;;;;21.52;11.55;;;;;;;;;;4981905;28;20115;-67
2023/05/04 02:43:58;;;;;;;17.23;12.23;;;;;;;;;;5011721;28;20770;-67
2023/05/04 02:46:25;;;;;;;19.73;11.68;;;;;;;;;;4982898;28;20061;-67
2023/05/04 02:48:51;;;;;;;18.10;11.75;;;;;;;;;;4982419;28;20042;-66
2023/05/04 02:51:17;;;;;;;17.77;11.73;;;;;;;;;;4989911;28;20066;-67
2023/05/04 02:53:45;;;;;;;18.48;12.07;;;;;;;;;;4980998;28;20045;-67
2023/05/04 02:56:10;;;;;;;17.40;12.18;;;;;;;;;;4972441;28;20818;-70
2023/05/04 02:58:35;;;;;;;21.27;11.77;;;;;;;;;;4982926;28;20116;-66
2023/05/04 03:01:01;;;;;;;18.63;11.70;;;;;;;;;;4986679;28;20047;-68
2023/05/04 03:03:26;;;;;;;23.90;12.00;;;;;;;;;;4988888;28;20037;-66
2023/05/04 03:05:51;;;;;;;21.52;11.88;;;;;;;;;;4984178;28;20483;-68
2023/05/04 03:08:17;;;;;;;19.15;11.63;;;;;;;;;;4987841;28;20049;-67
2023/05/04 03:10:42;;;;;;;16.92;11.00;;;;;;;;;;4982919;28;20408;-67
2023/05/04 03:13:07;;;;;;;16.83;11.68;;;;;;;;;;4984268;28;20814;-67
2023/05/04 03:15:32;;;;;;;20.02;11.98;;;;;;;;;;4984554;28;20037;-67
2023/05/04 03:18:00;;;;;;;19.75;12.48;;;;;;;;;;4993833;28;20083;-68
2023/05/04 03:20:26;;;;;;;18.38;11.82;;;;;;;;;;4986254;28;20975;-68
2023/05/04 03:22:51;;;;;;;18.33;12.65;;;;;;;;;;4988162;28;20044;-68
2023/05/04 03:25:16;;;;;;;19.48;11.35;;;;;;;;;;4969130;28;20030;-67
2023/05/04 03:27:41;;;;;;;19.13;11.88;;;;;;;;;;5022623;28;21893;-68
2023/05/04 03:30:07;;;;;;;24.20;11.90;;;;;;;;;;4989331;28;20038;-67
2023/05/04 03:32:35;;;;;;;23.30;12.63;;;;;;;;;;4981943;28;20088;-67
2023/05/04 03:35:00;;;;;;;20.35;12.30;;;;;;;;;;4984627;28;20053;-67
2023/05/04 03:37:27;;;;;;;21.55;13.32;;;;;;;;;;4983697;28;20056;-68
2023/05/04 03:39:53;;;;;;;20.23;12.30;;;;;;;;;;4987934;28;20041;-68
2023/05/04 03:42:18;;;;;;;18.52;12.00;;;;;;;;;;4984169;28;20111;-69
2023/05/04 03:44:43;;;;;;;21.17;12.02;;;;;;;;;;4985160;28;20049;-67
2023/05/04 03:47:14;;;;;;;20.25;12.05;;;;;;;;;;4984693;28;20037;-68
2023/05/04 03:49:41;;;;;;;17.40;12.50;;;;;;;;;;4983592;28;20038;-67
2023/05/04 03:52:07;;;;;;;18.40;12.60;;;;;;;;;;5008410;28;20406;-69
2023/05/04 03:54:32;;;;;;;19.30;12.13;;;;;;;;;;5008144;28;20033;-67
2023/05/04 03:56:57;;;;;;;19.95;12.05;;;;;;;;;;5006808;28;20528;-67
2023/05/04 03:59:22;;;;;;;18.92;12.10;;;;;;;;;;5003837;28;20033;-67
2023/05/04 04:01:48;;;;;;;20.75;12.70;;;;;;;;;;5004282;28;20072;-68
2023/05/04 04:04:15;;;;;;;28.45;13.40;;;;;;;;;;5003426;28;20041;-67
2023/05/04 04:06:41;;;;;;;20.15;12.73;;;;;;;;;;5007733;28;20632;-68
2023/05/04 04:09:11;;;;;;;20.17;12.73;;;;;;;;;;5009660;28;20766;-68
2023/05/04 04:11:36;;;;;;;21.08;12.70;;;;;;;;;;5012559;28;20048;-68
2023/05/04 04:14:01;;;;;;;19.80;12.75;;;;;;;;;;5008621;28;20072;-66
2023/05/04 04:16:31;;;;;;;23.90;13.88;;;;;;;;;;5008842;28;20039;-66
2023/05/04 04:18:56;;;;;;;22.02;13.07;;;;;;;;;;5034766;28;20037;-68
2023/05/04 04:21:22;;;;;;;20.10;13.13;;;;;;;;;;5005752;28;20084;-67
2023/05/04 04:23:47;;;;;;;20.27;13.30;;;;;;;;;;5010535;28;20038;-67
2023/05/04 04:26:12;;;;;;;26.38;14.45;;;;;;;;;;5012442;28;20037;-69
2023/05/04 04:28:40;;;;;;;22.85;14.27;;;;;;;;;;5007524;28;20080;-67
2023/05/04 04:31:05;;;;;;;22.08;13.90;;;;;;;;;;5041069;28;20045;-68
2023/05/04 04:33:31;;;;;;;20.00;13.80;;;;;;;;;;5009872;28;20046;-67
2023/05/04 04:35:56;;;;;;;18.73;13.75;;;;;;;;;;5010642;28;20033;-68
2023/05/04 04:38:21;;;;;;;24.08;14.85;;;;;;;;;;5008062;28;20067;-68
2023/05/04 04:40:49;;;;;;;21.08;14.07;;;;;;;;;;5008564;28;20080;-67
2023/05/04 04:43:14;;;;;;;23.92;14.07;;;;;;;;;;5008277;28;20343;-67
2023/05/04 04:45:40;;;;;;;19.23;13.65;;;;;;;;;;5013022;28;20499;-68
2023/05/04 04:48:05;;;;;;;25.40;15.05;;;;;;;;;;5008430;28;20460;-68
2023/05/04 04:50:37;;;;;;;22.08;14.10;;;;;;;;;;5041096;28;20811;-68
2023/05/04 04:53:02;;;;;;;20.98;14.55;;;;;;;;;;5010354;28;20556;-67
2023/05/04 04:55:27;;;;;;;23.10;14.98;;;;;;;;;;5010116;28;20440;-68
2023/05/04 04:57:54;;;;;;;22.02;14.30;;;;;;;;;;5007530;28;20097;-67
2023/05/04 05:00:22;;;;;;;21.15;12.93;;;;;;;;;;5009892;28;20105;-67
2023/05/04 05:02:48;;;;;;;24.27;13.38;;;;;;;;;;5009230;28;20036;-67
2023/05/04 05:05:13;;;;;;;23.42;13.80;;;;;;;;;;5011033;28;20042;-68
2023/05/04 05:07:42;;;;;;;21.38;13.02;;;;;;;;;;5007755;28;20094;-68
2023/05/04 05:10:07;;;;;;;22.38;13.82;;;;;;;;;;5008593;28;20047;-67
2023/05/04 05:12:32;;;;;;;22.77;13.55;;;;;;;;;;5007579;28;20041;-68
2023/05/04 05:15:02;;;;;;;23.52;14.90;;;;;;;;;;5032839;28;20149;-67
2023/05/04 05:17:27;;;;;;;20.23;13.63;;;;;;;;;;4985928;28;20681;-67
2023/05/04 05:19:52;;;;;;;21.50;13.98;;;;;;;;;;4988414;28;20131;-66
2023/05/04 05:22:17;;;;;;;22.88;14.18;;;;;;;;;;4987643;28;20079;-68
2023/05/04 05:24:43;;;;;;;19.98;13.45;;;;;;;;;;5003537;28;20489;-68
2023/05/04 05:27:10;;;;;;;16.85;12.40;;;;;;;;;;4988658;28;20205;-68
2023/05/04 05:29:36;;;;;;;17.80;13.27;;;;;;;;;;4989665;28;20060;-68
2023/05/04 05:32:02;;;;;;;19.13;12.80;;;;;;;;;;5018473;28;20065;-67
2023/05/04 05:34:27;;;;;;;18.38;12.30;;;;;;;;;;4991097;28;20782;-68
2023/05/04 05:36:53;;;;;;;20.35;13.35;;;;;;;;;;4991061;28;20136;-67
2023/05/04 05:39:18;;;;;;;17.30;12.75;;;;;;;;;;5009998;28;20544;-67
2023/05/04 05:41:43;;;;;;;20.95;12.00;;;;;;;;;;5018789;28;20486;-66
2023/05/04 05:44:08;;;;;;;19.58;12.05;;;;;;;;;;5002829;28;20431;-69
2023/05/04 05:46:36;;;;;;;16.92;12.18;;;;;;;;;;5003819;28;20889;-68
2023/05/04 05:49:01;;;;;;;21.40;12.07;;;;;;;;;;4974969;28;20034;-69
2023/05/04 05:51:27;;;;;;;15.85;11.52;;;;;;;;;;4970919;28;20057;-68
2023/05/04 05:53:52;;;;;;;16.80;11.73;;;;;;;;;;4997059;28;20298;-67
2023/05/04 05:56:17;;;;;;;19.05;11.65;;;;;;;;;;4968778;28;20037;-68
2023/05/04 05:58:42;;;;;;;17.50;11.13;;;;;;;;;;4973068;28;20296;-69
2023/05/04 06:01:08;;;;;;;16.90;11.75;;;;;;;;;;5003871;28;21719;-69
2023/05/04 06:03:33;;;;;;;17.95;11.50;;;;;;;;;;5003988;28;20041;-70
2023/05/04 06:05:58;;;;;;;16.67;11.25;;;;;;;;;;4967783;28;20042;-69
2023/05/04 06:08:26;;;;;;;15.27;10.98;;;;;;;;;;4970673;28;20045;-68
2023/05/04 06:10:51;;;;;;;15.98;10.20;;;;;;;;;;4967572;28;20045;-67
2023/05/04 06:13:16;;;;;;;16.70;10.73;;;;;;;;;;4966755;28;20440;-69
2023/05/04 06:15:49;;;;;;;16.55;10.60;;;;;;;;;;4997600;28;20135;-68
2023/05/04 06:18:14;;;;;;;17.40;10.82;;;;;;;;;;4964297;28;20046;-70
2023/05/04 06:20:39;;;;;;;16.83;10.60;;;;;;;;;;4964913;28;20545;-69
2023/05/04 06:23:05;;;;;;;17.20;10.60;;;;;;;;;;4978374;28;20502;-69
2023/05/04 06:25:35;;;;;;;15.48;10.63;;;;;;;;;;4973239;28;21012;-68
2023/05/04 06:28:00;;;;;;;16.33;10.90;;;;;;;;;;4967325;28;20042;-68
2023/05/04 06:30:25;;;;;;;15.10;10.13;;;;;;;;;;4968572;28;20038;-67
2023/05/04 06:32:53;;;;;;;12.50;9.60;;;;;;;;;;4968949;28;20885;-67
2023/05/04 06:35:20;;;;;;;13.30;10.07;;;;;;;;;;4971676;28;20880;-70
2023/05/04 06:37:46;;;;;;;12.88;8.85;;;;;;;;;;4975737;28;20041;-68
2023/05/04 06:40:11;;;;;;;16.90;10.25;;;;;;;;;;4974560;28;20785;-67
2023/05/04 06:42:36;;;;;;;15.52;9.30;;;;;;;;;;4972560;28;20061;-68
2023/05/04 06:45:04;;;;;;;17.88;9.15;;;;;;;;;;4972886;28;20041;-67
2023/05/04 06:47:29;;;;;;;14.75;8.45;;;;;;;;;;4971764;28;20158;-69
2023/05/04 06:49:57;;;;;;;11.93;8.20;;;;;;;;;;4971450;28;20034;-68
2023/05/04 06:52:23;;;;;;;12.35;8.77;;;;;;;;;;4972755;28;20193;-69
2023/05/04 06:54:50;;;;;;;10.77;7.88;;;;;;;;;;4973444;28;20109;-68
2023/05/04 06:57:16;;;;;;;14.32;8.20;;;;;;;;;;4970516;28;20069;-70
2023/05/04 06:59:41;;;;;;;11.57;8.40;;;;;;;;;;5000540;28;20114;-68
2023/05/04 07:02:06;;;;;;;14.40;8.40;;;;;;;;;;4999276;28;20041;-68
2023/05/04 07:04:32;;;;;;;14.55;9.23;;;;;;;;;;4968905;28;20124;-69
2023/05/04 07:06:57;;;;;;;14.18;8.50;;;;;;;;;;4974688;28;20201;-63
2023/05/04 07:09:22;;;;;;;13.48;7.90;;;;;;;;;;4987686;28;20039;-62
2023/05/04 07:11:50;;;;;;;12.20;7.90;;;;;;;;;;5015479;28;20145;-63
2023/05/04 07:14:15;;;;;;;11.25;7.25;;;;;;;;;;4968220;28;20030;-62
2023/05/04 07:16:41;;;;;;;13.98;7.65;;;;;;;;;;4968023;28;20077;-63
2023/05/04 07:19:06;;;;;;;12.30;7.97;;;;;;;;;;4984521;28;20037;-64
2023/05/04 07:21:33;;;;;;;11.75;8.00;;;;;;;;;;4988492;28;20029;-62
2023/05/04 07:23:59;;;;;;;10.40;8.07;;;;;;;;;;5017348;28;20033;-63
2023/05/04 07:26:26;;;;;;;13.02;8.45;;;;;;;;;;4986626;28;20509;-62
2023/05/04 07:28:52;;;;;;;13.15;8.55;;;;;;;;;;4990388;28;20034;-62
2023/05/04 07:31:17;;;;;;;13.82;8.95;;;;;;;;;;4988512;28;20087;-63
2023/05/04 07:33:42;;;;;;;12.68;7.93;;;;;;;;;;4983797;28;20037;-64
2023/05/04 07:36:08;;;;;;;12.25;8.23;;;;;;;;;;5021759;28;20033;-63
2023/05/04 07:38:35;;;;;;;13.75;8.35;;;;;;;;;;5021040;28;20646;-62
2023/05/04 07:41:00;;;;;;;12.85;8.00;;;;;;;;;;4997194;28;20040;-62
2023/05/04 07:43:26;;;;;;;11.52;8.18;;;;;;;;;;4989773;28;20037;-62
2023/05/04 07:45:52;;;;;;;10.75;7.75;;;;;;;;;;4996806;28;20033;-63
2023/05/04 07:48:17;;;;;;;12.35;7.57;;;;;;;;;;4988024;28;20766;-63
2023/05/04 07:50:45;;;;;;;12.52;7.88;;;;;;;;;;4986565;28;20045;-63
2023/05/04 07:53:11;;;;;;;11.60;7.45;;;;;;;;;;4969456;28;20435;-62
2023/05/04 07:55:37;;;;;;;10.10;7.72;;;;;;;;;;4968078;28;20874;-62
2023/05/04 07:58:02;;;;;;;10.55;7.53;;;;;;;;;;5017655;28;20164;-62
2023/05/04 08:00:27;;;;;;;12.07;8.30;;;;;;;;;;5017899;28;20037;-63
2023/05/04 08:02:55;;;;;;;13.48;8.00;;;;;;;;;;4988176;28;20148;-62
2023/05/04 08:05:21;;;;;;;14.68;8.40;;;;;;;;;;4989091;28;20033;-62
2023/05/04 08:07:46;;;;;;;11.50;8.18;;;;;;;;;;4971025;28;20220;-64
2023/05/04 08:10:11;;;;;;;15.27;8.50;;;;;;;;;;5015847;28;20539;-64
2023/05/04 08:12:38;;;;;;;12.35;8.48;;;;;;;;;;4986938;28;20116;-64
2023/05/04 08:15:06;;;;;;;11.43;8.10;;;;;;;;;;5011680;28;20072;-63
2023/05/04 08:17:34;;;;;;;13.73;8.27;;;;;;;;;;4986030;28;20636;-63
2023/05/04 08:20:00;;;;;;;13.93;7.90;;;;;;;;;;4985240;28;20120;-63
2023/05/04 08:22:25;;;;;;;11.40;7.45;;;;;;;;;;5015993;28;20096;-64
2023/05/04 08:24:51;;;;;;;10.68;7.00;;;;;;;;;;4986537;28;21974;-66
2023/05/04 08:27:16;;;;;;;15.55;7.85;;;;;;;;;;4982692;28;20037;-63
2023/05/04 08:29:41;;;;;;;12.20;8.13;;;;;;;;;;4985478;28;20034;-62
2023/05/04 08:32:07;;;;;;;10.95;8.07;;;;;;;;;;4994140;28;20060;-61
2023/05/04 08:34:32;;;;;;;13.55;8.05;;;;;;;;;;4983885;28;20335;-62
2023/05/04 08:37:02;;;;;;;13.52;9.43;;;;;;;;;;4987734;28;20908;-62
2023/05/04 08:39:28;;;;;;;9.80;7.70;;;;;;;;;;4984763;28;20052;-62
2023/05/04 08:41:56;;;;;;;11.15;7.55;;;;;;;;;;4984843;28;20289;-62
2023/05/04 08:44:26;;;;;;;15.85;8.60;;;;;;;;;;4984813;28;20040;-63
2023/05/04 08:46:52;;;;;;;15.95;8.13;;;;;;;;;;4983499;28;20596;-63
2023/05/04 08:49:21;;;;;;;12.65;7.60;;;;;;;;;;4985764;28;20072;-62
2023/05/04 08:51:50;;;;;;;18.10;8.25;;;;;;;;;;4983928;28;20030;-62
2023/05/04 08:54:16;;;;;;;13.77;7.57;;;;;;;;;;4984887;28;20101;-64
2023/05/04 08:56:43;;;;;;;10.93;7.63;;;;;;;;;;4985294;28;20742;-63
2023/05/04 08:59:17;;;;;;;14.70;8.27;;;;;;;;;;5006958;28;20576;-64
2023/05/04 09:01:43;;;;;;;12.93;9.05;;;;;;;;;;4983512;28;20030;-64
2023/05/04 09:04:11;;;;;;;14.80;9.27;;;;;;;;;;5015344;28;20041;-62
2023/05/04 09:06:37;;;;;;;14.00;9.43;;;;;;;;;;4984247;28;21819;-62
2023/05/04 09:09:02;;;;;;;11.98;8.82;;;;;;;;;;4986107;28;20962;-62
2023/05/04 09:11:27;;;;;;;13.52;8.43;;;;;;;;;;5017336;28;20244;-64
2023/05/04 09:13:53;;;;;;;12.60;8.80;;;;;;;;;;4985853;28;20101;-62
2023/05/04 09:16:18;;;;;;;12.93;7.75;;;;;;;;;;4984810;28;20111;-65
2023/05/04 09:18:44;;;;;;;10.70;7.70;;;;;;;;;;4984813;28;20144;-65
2023/05/04 09:21:10;;;;;;;11.73;7.10;;;;;;;;;;4982525;28;20218;-64
2023/05/04 09:23:46;;;;;;;17.40;8.38;;;;;;;;;;5014903;28;20427;-63
2023/05/04 09:26:11;;;;;;;11.45;8.05;;;;;;;;;;4984452;28;20029;-62
2023/05/04 09:28:38;;;;;;;11.77;8.45;;;;;;;;;;4984342;28;20033;-62
2023/05/04 09:31:04;;;;;;;15.07;8.02;;;;;;;;;;5012080;28;20041;-63
2023/05/04 09:33:29;;;;;;;10.35;7.80;;;;;;;;;;4983452;28;20720;-64
2023/05/04 09:35:55;;;;;;;11.27;7.38;;;;;;;;;;5015079;28;20119;-63
2023/05/04 09:38:27;;;;;;;11.23;8.00;;;;;;;;;;4984265;28;20053;-62
2023/05/04 09:40:53;;;;;;;10.40;8.68;;;;;;;;;;5026024;28;20460;-63
2023/05/04 09:43:18;;;;;;;12.35;7.93;;;;;;;;;;5003828;28;20552;-62
2023/05/04 09:45:47;;;;;;;11.70;8.93;;;;;;;;;;5003595;28;20048;-64
2023/05/04 09:48:19;;;;;;;14.02;8.75;;;;;;;;;;5003357;28;20029;-63
2023/05/04 09:50:48;;;;;;;13.95;9.27;;;;;;;;;;5001342;28;20263;-63
2023/05/04 09:53:14;;;;;;;12.32;8.50;;;;;;;;;;5019132;28;20570;-63
2023/05/04 09:55:41;;;;;;;13.57;8.63;;;;;;;;;;5002599;28;20036;-62
2023/05/04 09:58:07;;;;;;;16.98;9.18;;;;;;;;;;5001890;28;20106;-63
2023/05/04 10:00:34;;;;;;;13.20;8.95;;;;;;;;;;5001350;28;20033;-63
2023/05/04 10:03:02;;;;;;;18.90;8.88;;;;;;;;;;5003078;28;20073;-63
2023/05/04 10:05:29;;;;;;;11.25;8.00;;;;;;;;;;5003482;28;20041;-63
2023/05/04 10:07:58;;;;;;;12.93;9.05;;;;;;;;;;5009494;28;20083;-69
2023/05/04 10:10:24;;;;;;;12.82;8.75;;;;;;;;;;5033330;28;20037;-67
2023/05/04 10:12:49;;;;;;;14.35;9.35;;;;;;;;;;5010332;28;20486;-68
2023/05/04 10:15:16;;;;;;;15.02;9.50;;;;;;;;;;5010574;28;20038;-66
2023/05/04 10:17:52;;;;;;;15.50;8.98;;;;;;;;;;5040859;28;20055;-68
2023/05/04 10:20:33;;;;;;;11.90;8.88;;;;;;;;;;5009762;28;20057;-68
2023/05/04 10:22:58;;;;;;;11.80;8.38;;;;;;;;;;5009325;28;20119;-67
2023/05/04 10:25:38;;;;;;;13.98;8.48;;;;;;;;;;5026532;28;20045;-66
2023/05/04 10:28:10;;;;;;;12.48;8.63;;;;;;;;;;5019958;28;21801;-67
2023/05/04 10:30:35;;;;;;;13.10;9.15;;;;;;;;;;4988013;28;20057;-69
2023/05/04 10:33:03;;;;;;;13.07;9.30;;;;;;;;;;4993650;28;20037;-67
2023/05/04 10:35:28;;;;;;;13.18;9.55;;;;;;;;;;4997093;28;20483;-69
2023/05/04 10:37:56;;;;;;;15.88;9.63;;;;;;;;;;4993114;28;20116;-68
2023/05/04 10:40:34;;;;;;;13.38;8.60;;;;;;;;;;4995992;28;20034;-66
2023/05/04 10:42:59;;;;;;;14.20;9.07;;;;;;;;;;5019233;28;20045;-68
2023/05/04 10:45:38;;;;;;;11.88;8.82;;;;;;;;;;5050586;28;20053;-68
2023/05/04 10:48:03;;;;;;;15.07;9.27;;;;;;;;;;5023392;28;20053;-67
2023/05/04 10:50:39;;;;;;;16.80;9.32;;;;;;;;;;5018134;28;21979;-65
2023/05/04 10:53:04;;;;;;;13.05;9.35;;;;;;;;;;4997910;28;20030;-65
2023/05/04 10:55:37;;;;;;;17.25;8.80;;;;;;;;;;4993543;28;20056;-67
2023/05/04 10:58:02;;;;;;;13.27;8.85;;;;;;;;;;4991996;28;20092;-67
2023/05/04 11:00:35;;;;;;;11.90;9.20;;;;;;;;;;4994393;28;20463;-68
2023/05/04 11:03:06;;;;;;;10.90;8.88;;;;;;;;;;5024661;28;20037;-67
2023/05/04 11:05:42;;;;;;;12.95;8.70;;;;;;;;;;5020841;28;20146;-67
2023/05/04 11:08:23;;;;;;;14.25;9.52;;;;;;;;;;4992516;28;20041;-66
2023/05/04 11:11:00;;;;;;;18.85;9.32;;;;;;;;;;5025629;28;20073;-66
2023/05/04 11:13:27;;;;;;;14.48;9.48;;;;;;;;;;4996440;28;20420;-68
2023/05/04 11:15:53;;;;;;;13.85;9.27;;;;;;;;;;4996785;28;20133;-68
2023/05/04 11:18:33;;;;;;;13.88;9.57;;;;;;;;;;5000149;28;20041;-66
2023/05/04 11:21:01;;;;;;;13.43;9.35;;;;;;;;;;5002889;28;20048;-67
2023/05/04 11:23:27;;;;;;;18.30;8.95;;;;;;;;;;5009850;28;20046;-69
2023/05/04 11:25:52;;;;;;;13.10;8.90;;;;;;;;;;5014767;28;20708;-66
2023/05/04 11:28:17;;;;;;;12.98;8.95;;;;;;;;;;5012138;28;20117;-65
2023/05/04 11:30:44;;;;;;;15.13;9.65;;;;;;;;;;5037326;28;20363;-62
2023/05/04 11:33:13;;;;;;;12.80;8.95;;;;;;;;;;5005602;28;20037;-63
2023/05/04 11:35:40;;;;;;;13.20;9.48;;;;;;;;;;5036769;28;20060;-63
2023/05/04 11:38:08;;;;;;;12.45;8.88;;;;;;;;;;5008760;28;20115;-64
2023/05/04 11:40:34;;;;;;;14.95;9.40;;;;;;;;;;5009531;28;20037;-64
2023/05/04 11:43:00;;;;;;;13.45;9.20;;;;;;;;;;5039827;28;20037;-66
2023/05/04 11:45:33;;;;;;;11.60;9.70;;;;;;;;;;5008530;28;20033;-65
2023/05/04 11:47:59;;;;;;;14.10;9.02;;;;;;;;;;5008371;28;20048;-63
2023/05/04 11:50:25;;;;;;;14.95;9.60;;;;;;;;;;5011216;28;20029;-62
2023/05/04 11:52:50;;;;;;;15.63;9.40;;;;;;;;;;5008455;28;20647;-65
2023/05/04 11:55:26;;;;;;;13.25;9.05;;;;;;;;;;5009259;28;20141;-65
2023/05/04 11:58:02;;;;;;;14.30;9.35;;;;;;;;;;4988312;28;20042;-66
2023/05/04 12:00:37;;;;;;;15.45;9.88;;;;;;;;;;5020172;28;20041;-68
2023/05/04 12:03:04;;;;;;;13.25;9.43;;;;;;;;;;4988725;28;20136;-65
2023/05/04 12:05:30;;;;;;;12.13;8.88;;;;;;;;;;4990117;28;20042;-66
2023/05/04 12:07:56;;;;;;;14.07;10.10;;;;;;;;;;4987852;28;21043;-64
2023/05/04 12:10:27;;;;;;;16.58;9.40;;;;;;;;;;4989424;28;20033;-64
2023/05/04 12:12:53;;;;;;;11.35;8.63;;;;;;;;;;4988577;28;20168;-66
2023/05/04 12:15:30;;;;;;;13.88;9.50;;;;;;;;;;4988765;28;20029;-63
2023/05/04 12:17:55;;;;;;;12.52;9.43;;;;;;;;;;5016162;28;20132;-66
2023/05/04 12:20:24;;;;;;;12.00;8.60;;;;;;;;;;4985827;28;20095;-64
2023/05/04 12:22:49;;;;;;;12.02;9.20;;;;;;;;;;5006363;28;20041;-68
2023/05/04 12:25:16;;;;;;;13.88;9.25;;;;;;;;;;5036337;28;20029;-66
2023/05/04 12:27:42;;;;;;;11.60;8.55;;;;;;;;;;5005814;28;20033;-66
2023/05/04 12:30:07;;;;;;;11.57;9.10;;;;;;;;;;5002773;28;20098;-65
2023/05/04 12:32:35;;;;;;;13.90;8.70;;;;;;;;;;4992285;28;20037;-64
2023/05/04 12:35:00;;;;;;;11.75;9.32;;;;;;;;;;5005105;28;20158;-64
2023/05/04 12:37:26;;;;;;;12.07;8.88;;;;;;;;;;5005124;28;20048;-64
2023/05/04 12:39:51;;;;;;;15.85;9.50;;;;;;;;;;5039520;28;20128;-66
2023/05/04 12:42:16;;;;;;;10.95;8.80;;;;;;;;;;5007762;28;20050;-64
2023/05/04 12:44:44;;;;;;;13.10;9.55;;;;;;;;;;5008138;28;20175;-65
2023/05/04 12:47:12;;;;;;;15.63;8.98;;;;;;;;;;5038378;28;20033;-65
2023/05/04 12:49:40;;;;;;;14.57;9.65;;;;;;;;;;5037936;28;20499;-64
2023/05/04 12:52:05;;;;;;;14.13;9.85;;;;;;;;;;5005063;28;20578;-65
2023/05/04 12:54:31;;;;;;;14.18;9.73;;;;;;;;;;5005366;28;20040;-64
2023/05/04 12:56:56;;;;;;;14.63;10.20;;;;;;;;;;5005283;28;20041;-65
2023/05/04 12:59:23;;;;;;;15.93;9.95;;;;;;;;;;5004617;28;20645;-66
2023/05/04 13:01:48;;;;;;;13.13;9.85;;;;;;;;;;5003425;28;20061;-65
2023/05/04 13:04:14;;;;;;;13.57;9.55;;;;;;;;;;5004264;28;20037;-65
2023/05/04 13:06:39;;;;;;;14.20;10.02;;;;;;;;;;5006001;28;20033;-65
2023/05/04 13:09:07;;;;;;;14.70;9.38;;;;;;;;;;5036211;28;20170;-64
2023/05/04 13:11:32;;;;;;;15.05;10.10;;;;;;;;;;5005955;28;20108;-65
2023/05/04 13:13:58;;;;;;;12.85;9.00;;;;;;;;;;5009780;28;20037;-65
2023/05/04 13:16:25;;;;;;;12.60;9.55;;;;;;;;;;5005246;28;20030;-64
2023/05/04 13:18:50;;;;;;;13.73;9.43;;;;;;;;;;5035363;28;20041;-64
2023/05/04 13:21:16;;;;;;;15.23;10.20;;;;;;;;;;5036815;28;20217;-64
2023/05/04 13:23:41;;;;;;;13.35;8.98;;;;;;;;;;5004464;28;20135;-65
2023/05/04 13:26:06;;;;;;;12.68;9.45;;;;;;;;;;5008019;28;20618;-64
2023/05/04 13:28:34;;;;;;;11.93;8.82;;;;;;;;;;5005309;28;20038;-65
2023/05/04 13:31:02;;;;;;;13.13;8.73;;;;;;;;;;5023315;28;20406;-65
2023/05/04 13:33:31;;;;;;;15.27;9.77;;;;;;;;;;5003984;28;20039;-66
2023/05/04 13:35:56;;;;;;;14.77;9.52;;;;;;;;;;5004344;28;20033;-64
2023/05/04 13:38:22;;;;;;;13.90;9.55;;;;;;;;;;5002008;28;20130;-64
2023/05/04 13:40:47;;;;;;;14.70;8.88;;;;;;;;;;5005915;28;20185;-65
2023/05/04 13:43:12;;;;;;;11.43;8.85;;;;;;;;;;5005945;28;20095;-65
2023/05/04 13:45:38;;;;;;;15.05;9.02;;;;;;;;;;5003603;28;20122;-64
2023/05/04 13:48:06;;;;;;;14.23;9.70;;;;;;;;;;5003341;28;20488;-66
2023/05/04 13:50:33;;;;;;;14.85;9.32;;;;;;;;;;5003720;28;20218;-64
2023/05/04 13:53:01;;;;;;;12.32;8.77;;;;;;;;;;5004062;28;21057;-71
2023/05/04 13:55:27;;;;;;;13.70;8.98;;;;;;;;;;5002588;28;20223;-65
2023/05/04 13:57:52;;;;;;;11.02;8.52;;;;;;;;;;5002895;28;20594;-64
2023/05/04 14:00:18;;;;;;;12.85;9.13;;;;;;;;;;5033774;28;20038;-73
2023/05/04 14:02:43;;;;;;;11.35;8.23;;;;;;;;;;5001783;28;20497;-66
2023/05/04 14:05:08;;;;;;;15.00;8.63;;;;;;;;;;5033971;28;20447;-65
2023/05/04 14:07:33;;;;;;;12.50;8.32;;;;;;;;;;5006019;28;20118;-65
2023/05/04 14:09:59;;;;;;;12.27;8.90;;;;;;;;;;5035305;28;20033;-66
2023/05/04 14:12:26;;;;;;;12.82;9.18;;;;;;;;;;5038489;28;20080;-64
2023/05/04 14:14:54;;;;;;;13.52;8.73;;;;;;;;;;5005611;28;20103;-65
2023/05/04 14:17:19;;;;;;;14.00;8.60;;;;;;;;;;5012312;28;20041;-65
2023/05/04 14:19:45;;;;;;;13.73;8.75;;;;;;;;;;5006190;28;20037;-64